Asotin, WA

4:24 PM PDT on May 24, 2015 (GMT -0700)
Lowell | | Change Station
CLOSE
Current Station
Airport
Location: Lowell,
Elevation: 1480 ft
Nearby Weather Stations

Elev 1480 ft 46.14 °N, 115.60 °W | Updated 32 minutes ago

Clear
Clear
67 °F
Feels Like 67 °F
N
4
Wind Variable Wind from NNW
Gusts mph

Today
High -- | Low -- °F
--% Chance of Precip.
Yesterday
High -- | Low -- °F
Precip. -- in
5:05 AM 8:24 PM
Waxing Crescent, 43% visible
Pressure 29.84 in
Visibility -9999.0 miles
Clouds
Dew Point 57 °F
Humidity 70%
Rainfall 0.01 in
Snow Depth Not available.
UV Not available.
Pollen 8.60 out of 12
Air Quality Not available.
Flu Activity Sporadic
METAR KP69 242252Z AUTO 34003KT 19/14 A2987 RMK AO1 SLP105 T01940139 $

More Conditions Fewer Conditions

Pressure 29.84 in
Visibility -9999.0 miles
Clouds
Dew Point 57 °F
Humidity 70%
Rainfall 0.01 in
Snow Depth Not available.
UV Not available.
Pollen 8.60 out of 12
Air Quality Not available.
Flu Activity Sporadic
METAR KP69 242252Z AUTO 34003KT 19/14 A2987 RMK AO1 SLP105 T01940139 $

More Conditions Fewer Conditions

10-Day Weather Forecast

Almanac

Astronomy

May. 24, 2015 Rise Set
Actual Time
Civil Twilight
Nautical Twilight
Astronomical Twilight
Moon
Length of Visible Light
Length of Day
Tomorrow will be .
, % of the Moon is Illuminated

Today's Extremes

State Highs State Lows

Community

WunderPhotos

Upload Photos

1,823,892 photos uploaded!

WunderBlogs® & News

Nearby

Air Quality

  Air Quality AQ Index Pollutant
Not available.

Snow Depth

Station Depth Elevation

Earthquake Activity

City Distance Mag. Time & Date
Minimum magnitude displayed is 2.5.

Coastal Water Temperatures

Place Temperature

Stations

Nearby Weather Stations

Station Location Temp. Windchill Dew Point Humidity Wind Precip. Elev Updated Type